Latest Coastal Weather Observations for Devonport Airport

IDV60701

Issued at 4:02 am EST Tuesday 28 June 2022 (issued every 10 minutes, with the page automatically refreshed every 10 minutes)

About coastal observations | Map of coastal stations | Coastal observations for VIC | Marine services | Other Formats
Station Details ID: 091126 Name: DEVONPORT AIRPORT Lat: -41.17 Lon: 146.43 Height: 8.0 m
Data from the previous 72 hours. | See also: Recent months at Devonport Airport
Date/Time
EST
Wind Sea
Height
m
Swell Vis
km
Cloud Weather Temp
°C
Press
MSL
hPa
Rain since
9am
mm
Dir  Spd
kts
Gust
kts
Height
m
Period
s
Dir
28/04:00am SSE 4 5 - - - - 10 Partly cloudy - 5.8 1029.0 0.0
28/03:30am SSE 5 5 - - - - 10 Partly cloudy - 5.6 1029.1 0.0
28/03:00am S 5 7 - - - - 10 Mostly cloudy - 5.4 1029.5 0.0
28/02:30am S 5 6 - - - - 10 Cloudy - 5.6 1029.6 0.0
28/02:00am S 4 5 - - - - 10 Cloudy - 5.2 1029.6 0.0
28/01:30am SSE 4 5 - - - - 10 Cloudy - 5.1 1029.5 0.0
28/01:00am SSE 5 6 - - - - 10 Cloudy - 5.0 1029.8 0.0
28/12:30am SSE 7 9 - - - - 10 Partly cloudy - 3.6 1030.2 0.0
28/12:00am SSE 1 4 - - - - 10 Mostly clear - 2.9 1030.3 0.0
 
Date/Time
EST
Wind Sea
Height
m
Swell Vis
km
Cloud Weather Temp
°C
Press
MSL
hPa
Rain since
9am
mm
Dir  Spd
kts
Gust
kts
Height
m
Period
s
Dir
27/11:30pm SSE 5 6 - - - - 10 - - 3.0 1030.5 0.0
27/11:00pm S 4 5 - - - - 10 Partly cloudy - 3.5 1030.8 0.0
27/10:30pm S 4 5 - - - - 10 Partly cloudy - 4.1 1030.9 0.0
27/10:00pm SSW 4 5 - - - - 10 - - 3.9 1031.0 0.0
27/09:30pm S 5 6 - - - - 10 - - 3.9 1031.0 0.0
27/09:00pm S 3 5 - - - - 10 - - 4.5 1031.2 0.0
27/08:30pm SSW 4 4 - - - - 10 - - 4.8 1031.1 0.0
27/08:00pm SW 4 5 - - - - 10 - - 4.3 1031.1 0.0
27/07:30pm CALM 0 0 - - - - 10 - - 4.1 1031.2 0.0
27/07:00pm WSW 5 6 - - - - 10 - - 7.2 1031.1 0.0
27/06:30pm SW 3 5 - - - - 10 - - 5.6 1030.9 0.0
27/06:00pm WSW 4 4 - - - - 10 Mostly cloudy - 7.4 1030.5 0.0
27/05:30pm WSW 8 9 - - - - 10 - - 8.3 1030.6 0.0
27/05:00pm W 7 8 - - - - 10 - - 8.1 1030.4 0.0
27/04:30pm W 8 9 - - - - 10 - - 9.1 1030.1 0.0
27/04:00pm W 9 11 - - - - 10 - - 11.0 1030.4 0.0
27/03:30pm WNW 6 8 - - - - 10 - - 11.3 1030.3 0.0
27/03:00pm NW 5 6 - - - - 10 - - 11.1 1030.1 0.0
27/02:30pm NW 7 9 - - - - 10 - - 10.7 1030.1 0.0
27/02:00pm N 5 7 - - - - 10 - - 11.1 1030.1 0.0
27/01:30pm NNW 4 6 - - - - 10 - - 11.5 1030.2 0.0
27/01:00pm WNW 4 6 - - - - 10 - - 11.1 1030.4 0.0
27/12:30pm NNW 2 5 - - - - 10 - - 10.7 1030.5 0.0
27/12:00pm NNE 5 7 - - - - 10 - - 10.0 1030.6 0.0
27/11:30am NE 4 6 - - - - 10 - - 9.9 1030.9 0.0
27/11:00am NW 3 5 - - - - 10 - - 9.4 1031.2 0.0
27/10:30am S 6 8 - - - - 10 - - 7.6 1030.8 0.0
27/10:00am SSE 7 9 - - - - 10 - - 5.9 1030.7 0.0
27/09:30am SE 5 7 - - - - 10 - - 4.8 1030.4 0.0
27/09:00am S 9 12 - - - - 10 - - 2.9 1030.0 0.0
27/08:30am SSW 5 8 - - - - 10 - - 2.0 1029.9 0.0
27/08:00am S 8 9 - - - - 10 - - 1.0 1029.1 0.0
27/07:30am S 7 9 - - - - 10 - - 0.8 1028.8 0.0
27/07:00am SSE 5 6 - - - - 10 - - 0.5 1028.6 0.0
27/06:30am SSW 4 5 - - - - 10 - - 1.9 1028.1 0.0
27/06:00am S 7 8 - - - - 10 - - 1.6 1027.6 0.0
27/05:30am S 6 8 - - - - 10 - - 1.3 1027.0 0.0
27/05:00am S 5 6 - - - - 10 - - 2.0 1026.9 0.0
27/04:30am WSW 5 6 - - - - 10 - - 4.0 1026.6 0.0
27/04:00am WSW 6 8 - - - - 10 - - 4.1 1026.4 0.0
27/03:30am WSW 7 8 - - - - 10 - - 3.7 1026.6 0.0
27/03:00am SW 6 8 - - - - 10 - - 3.8 1026.4 0.0
27/02:30am SW 7 11 - - - - 10 - - 4.4 1026.2 0.0
27/02:00am WSW 8 9 - - - - 10 Partly cloudy - 3.3 1026.1 0.0
27/01:30am SSE 1 4 - - - - 10 - - 4.1 1025.8 0.0
27/01:00am NNW 4 6 - - - - 10 - - 4.6 1025.6 0.0
27/12:30am W 3 4 - - - - 10 - - 3.1 1025.4 0.0
27/12:00am WSW 4 5 - - - - 10 - - 4.6 1025.3 0.0
 
Date/Time
EST
Wind Sea
Height
m
Swell Vis
km
Cloud Weather Temp
°C
Press
MSL
hPa
Rain since
9am
mm
Dir  Spd
kts
Gust
kts
Height
m
Period
s
Dir
26/11:30pm SW 4 6 - - - - 10 - - 5.0 1025.3 0.0
26/11:00pm WSW 2 5 - - - - 10 - - 5.7 1024.9 0.0
26/10:30pm S 4 7 - - - - 10 - - 4.4 1024.5 0.0
26/10:00pm S 6 10 - - - - 10 - - 4.9 1024.3 0.0
26/09:30pm WSW 9 11 - - - - 10 - - 4.3 1024.1 0.0
26/09:00pm WSW 7 9 - - - - 10 - - 4.5 1023.9 0.0
26/08:30pm WSW 8 9 - - - - 10 - - 5.1 1023.6 0.0
26/08:00pm WSW 9 9 - - - - 10 - - 4.3 1023.2 0.0
26/07:30pm W 9 11 - - - - 10 - - 4.5 1023.0 0.0
26/07:00pm W 10 12 - - - - 10 - - 6.7 1022.5 0.0
26/06:30pm W 10 11 - - - - 10 Partly cloudy - 6.5 1022.1 0.0
26/06:00pm W 9 11 - - - - 10 Mostly clear - 6.7 1021.8 0.0
26/05:30pm W 7 10 - - - - 10 Partly cloudy - 7.3 1021.6 0.0
26/05:00pm W 11 13 - - - - 10 - - 8.3 1021.0 0.0
26/04:30pm W 14 17 - - - - 10 - - 9.5 1020.6 0.0
26/04:00pm W 15 20 - - - - 10 - - 10.3 1020.1 0.0
26/03:30pm W 10 13 - - - - 10 - - 11.0 1019.9 0.0
26/03:00pm W 11 15 - - - - 10 Partly cloudy - 11.3 1019.6 0.0
26/02:30pm W 11 16 - - - - 10 - - 10.8 1019.1 0.0
26/02:00pm WSW 18 23 - - - - 10 - - 11.3 1019.0 0.0
26/01:30pm WSW 15 21 - - - - 10 - - 11.9 1018.9 0.0
26/01:00pm WSW 14 19 - - - - 10 - - 11.5 1018.9 0.0
26/12:30pm W 13 19 - - - - 10 Partly cloudy - 11.7 1019.1 0.0
26/12:00pm WSW 14 19 - - - - 10 Partly cloudy - 11.5 1019.0 0.0
26/11:30am W 13 18 - - - - 10 - - 11.6 1019.1 0.0
26/11:00am W 11 15 - - - - 10 - - 10.8 1019.1 0.0
26/10:30am WSW 11 13 - - - - 10 - - 10.1 1019.1 0.0
26/10:00am W 11 13 - - - - 10 - - 9.2 1018.8 0.0
26/09:30am W 11 15 - - - - 10 - - 9.3 1018.6 0.0
26/09:00am W 10 13 - - - - 10 - - 9.2 1018.5 1.2
26/08:30am WSW 9 11 - - - - 10 - - 7.7 1018.1 1.2
26/08:00am W 10 14 - - - - 10 - - 7.3 1017.8 1.2
26/07:30am W 7 10 - - - - 10 - - 6.2 1017.2 1.0
26/07:00am WSW 5 7 - - - - 10 - - 7.1 1016.8 1.0
26/06:30am W 10 13 - - - - 10 - - 7.6 1016.0 1.0
26/06:00am W 13 17 - - - - 10 - - 8.3 1015.5 1.0
26/05:30am W 12 16 - - - - 10 - - 8.5 1014.9 1.0
26/05:00am W 10 11 - - - - 10 - - 6.9 1014.3 1.0
26/04:30am W 10 13 - - - - 10 - - 8.3 1014.1 1.0
26/04:00am W 14 17 - - - - 10 Partly cloudy - 9.6 1013.5 1.0
26/03:30am W 16 21 - - - - 10 Partly cloudy - 10.2 1013.0 1.0
26/03:00am W 14 18 - - - - 10 Cloudy - 10.6 1013.0 1.0
26/02:30am WNW 19 23 - - - - 10 Cloudy - 11.0 1012.6 1.0
26/02:00am W 16 21 - - - - 10 Partly cloudy - 10.9 1012.1 1.0
26/01:30am W 18 26 - - - - 10 Partly cloudy - 11.2 1012.0 1.0
26/01:00am W 21 31 - - - - 10 Partly cloudy - 11.9 1011.6 1.0
26/12:30am WNW 26 32 - - - - 10 Partly cloudy - 12.7 1011.2 1.0
26/12:00am WNW 23 30 - - - - 10 Cloudy Recent precip. 12.3 1011.3 1.0
 
Date/Time
EST
Wind Sea
Height
m
Swell Vis
km
Cloud Weather Temp
°C
Press
MSL
hPa
Rain since
9am
mm
Dir  Spd
kts
Gust
kts
Height
m
Period
s
Dir
25/11:38pm WNW 20 30 - - - - 10 Partly cloudy - 12.1 1011.2 1.0
25/11:30pm WNW 19 24 - - - - 10 Partly cloudy - 12.1 1011.5 1.0
25/11:00pm WNW 22 28 - - - - 10 Partly cloudy - 11.9 1011.6 1.0
25/10:30pm WNW 25 31 - - - - 10 Partly cloudy - 11.9 1011.5 1.0
25/10:24pm WNW 25 33 - - - - 10 Partly cloudy - 11.9 1011.6 1.0
25/10:07pm WNW 28 36 - - - - 6 Partly cloudy - 11.7 1011.7 0.8
25/10:02pm NW 26 36 - - - - 9 Partly cloudy - 11.7 1011.7 0.8
25/10:00pm NW 25 33 - - - - 10 Partly cloudy - 11.9 1011.7 0.8
25/09:51pm NW 23 31 - - - - 9 Partly cloudy - 12.4 1011.6 0.8
25/09:30pm WNW 17 21 - - - - 10 Partly cloudy - 12.5 1011.8 0.8
25/09:00pm WNW 16 21 - - - - 10 Cloudy - 12.1 1012.3 0.8
25/08:30pm WNW 19 24 - - - - 10 Partly cloudy - 11.9 1012.2 0.8
25/08:00pm WNW 20 25 - - - - 10 - - 11.9 1012.4 0.8
25/07:30pm WNW 21 28 - - - - 10 Partly cloudy - 11.7 1012.2 0.8
25/07:00pm WNW 23 29 - - - - 10 Partly cloudy - 12.1 1011.8 0.6
25/06:49pm WNW 23 34 - - - - 10 Partly cloudy - 12.4 1011.6 0.6
25/06:30pm WNW 22 30 - - - - 10 Partly cloudy - 13.3 1011.3 0.6
25/06:00pm WNW 24 31 - - - - 10 Partly cloudy - 13.1 1011.1 0.6
25/05:30pm WNW 24 29 - - - - 10 Partly cloudy - 12.9 1011.1 0.6
25/05:00pm WNW 23 29 - - - - 10 Partly cloudy - 12.9 1010.9 0.6
25/04:30pm WNW 24 32 - - - - 10 Partly cloudy - 12.9 1010.8 0.6
25/04:19pm WNW 22 29 - - - - 10 Partly cloudy - 13.0 1010.7 0.6
25/04:00pm WNW 22 32 - - - - 4 Partly cloudy - 12.4 1010.9 0.6
25/03:59pm WNW 22 32 - - - - 5 Partly cloudy - 12.4 1010.9 0.4
25/03:58pm WNW 22 32 - - - - 9 Partly cloudy - 12.6 1010.8 0.4
25/03:30pm WNW 21 29 - - - - 10 Partly cloudy - 13.5 1010.9 0.0
25/03:00pm WNW 21 27 - - - - 10 Mostly clear - 13.6 1010.6 0.0
25/02:30pm WNW 22 29 - - - - 10 Partly cloudy - 13.7 1010.4 0.0
25/02:00pm WNW 21 27 - - - - 10 Partly cloudy - 13.6 1010.7 0.0
25/01:33pm WNW 21 31 - - - - 10 Partly cloudy - 13.2 1010.9 0.0
25/01:30pm WNW 21 28 - - - - 10 Partly cloudy - 13.4 1010.9 0.0
25/01:00pm WNW 21 25 - - - - 10 Partly cloudy - 13.7 1011.2 0.0
25/12:30pm WNW 15 18 - - - - 10 Partly cloudy - 13.7 1011.5 0.0
25/12:00pm WNW 17 23 - - - - 10 Mostly clear - 13.0 1011.6 0.0
25/11:30am WNW 20 26 - - - - 10 Partly cloudy - 12.9 1011.8 0.0
25/11:00am WNW 22 27 - - - - 10 Partly cloudy - 12.8 1012.2 0.0
25/10:30am WNW 21 28 - - - - 10 Partly cloudy - 12.4 1012.2 0.0
25/10:00am WNW 20 25 - - - - 10 Partly cloudy - 13.2 1012.2 0.0
25/09:30am WNW 15 19 - - - - 10 - - 12.3 1011.7 0.0
25/09:00am W 13 19 - - - - 10 Partly cloudy - 11.7 1011.8 0.2
25/08:30am W 15 20 - - - - 10 Partly cloudy - 11.7 1011.7 0.2
25/08:00am WNW 17 22 - - - - 10 - - 11.3 1011.5 0.2
25/07:30am W 12 19 - - - - 10 Partly cloudy - 11.0 1011.5 0.2
25/07:00am W 7 10 - - - - 10 Partly cloudy - 9.7 1011.5 0.2
25/06:30am WSW 5 9 - - - - 10 Partly cloudy - 9.4 1011.4 0.2
25/06:00am W 8 12 - - - - 10 Cloudy - 9.9 1011.1 0.2
25/05:42am W 10 13 - - - - 10 Partly cloudy - 10.1 1011.0 0.2
25/05:30am W 10 14 - - - - 10 Partly cloudy - 9.8 1010.9 0.2
25/05:20am W 14 20 - - - - 10 Partly cloudy - 10.1 1010.8 0.2
25/05:00am WNW 22 28 - - - - 10 Partly cloudy - 10.9 1010.5 0.2
25/04:56am WNW 21 28 - - - - 10 Partly cloudy - 10.8 1010.5 0.2
25/04:46am WNW 21 27 - - - - 8 Partly cloudy - 10.8 1010.4 0.2
25/04:30am WNW 20 24 - - - - 5 Partly cloudy - 10.6 1010.5 0.0
25/04:29am WNW 20 24 - - - - 5 Partly cloudy - 10.6 1010.5 0.0
25/04:09am WNW 16 23 - - - - 6 Partly cloudy - 10.8 1010.4 0.0

Other formats

Comma delimited format used in spreadsheet applications
http://www.bom.gov.au/fwo/IDV60701/IDV60701.95960.axf

JavaScript Object Notation format (JSON) in row-major order
http://www.bom.gov.au/fwo/IDV60701/IDV60701.95960.json

Data quality

Most of these data are generated automatically and are frequently updated. Quality checks on data are not normally performed. It is possible for incorrect values to appear. Refer to information at About Latest Weather Observations and please check the disclaimer before using these data.